createdAt,value
2018-02-22T00:01:57.878Z,32.35
2018-02-22T00:04:26.300Z,29.00
2018-02-22T00:06:54.373Z,31.58
2018-02-22T00:09:22.443Z,29.40
2018-02-22T00:11:50.525Z,29.30
2018-02-22T00:14:19.636Z,30.33
2018-02-22T00:16:47.843Z,28.05
2018-02-22T00:19:16.052Z,27.00
2018-02-22T00:21:44.240Z,27.13
2018-02-22T00:24:12.340Z,25.70
2018-02-22T00:26:40.749Z,27.25
2018-02-22T00:29:08.823Z,27.00
2018-02-22T00:31:37.227Z,26.55
2018-02-22T00:34:05.508Z,26.92
2018-02-22T00:36:33.726Z,25.90
2018-02-22T00:39:02.101Z,23.50
2018-02-22T00:41:30.491Z,24.25
2018-02-22T00:43:58.798Z,24.98
2018-02-22T00:46:27.319Z,25.65
2018-02-22T00:48:55.341Z,24.25
2018-02-22T00:51:23.797Z,26.08
2018-02-22T00:53:51.999Z,24.75
2018-02-22T00:56:20.212Z,24.98
2018-02-22T00:58:48.221Z,28.30
2018-02-22T01:01:16.380Z,27.05
2018-02-22T01:03:44.416Z,27.50
2018-02-22T01:06:12.544Z,24.15
2018-02-22T01:08:40.755Z,24.52
2018-02-22T01:11:08.934Z,25.60
2018-02-22T01:13:37.245Z,26.62
2018-02-22T01:16:05.545Z,26.20
2018-02-22T01:18:33.880Z,27.23
2018-02-22T01:21:02.318Z,24.50
2018-02-22T01:23:30.667Z,27.75
2018-02-22T01:25:58.829Z,25.52
2018-02-22T01:28:27.023Z,25.75
2018-02-22T01:30:55.222Z,26.87
2018-02-22T01:33:23.401Z,23.83
2018-02-22T01:35:51.502Z,25.35
2018-02-22T01:38:19.689Z,23.48
2018-02-22T01:40:47.860Z,23.67
2018-02-22T01:43:16.082Z,24.70
2018-02-22T01:45:44.053Z,24.95
2018-02-22T01:48:12.227Z,26.17
2018-02-22T01:50:40.659Z,25.10
2018-02-22T01:53:08.858Z,23.30
2018-02-22T01:55:37.358Z,23.40
2018-02-22T01:58:05.822Z,25.58
2018-02-22T02:00:34.159Z,22.42
2018-02-22T02:03:02.676Z,21.80
2018-02-22T02:05:31.258Z,21.95
2018-02-22T02:07:59.463Z,23.58
2018-02-22T02:10:27.753Z,23.17
2018-02-22T02:12:56.045Z,24.10
2018-02-22T02:15:24.226Z,24.75
2018-02-22T02:17:52.443Z,23.62
2018-02-22T02:20:20.935Z,24.40
2018-02-22T02:22:49.134Z,23.27
2018-02-22T02:25:17.243Z,24.50
2018-02-22T02:27:45.315Z,23.12
2018-02-22T02:30:13.434Z,25.10
2018-02-22T02:32:41.874Z,22.85
2018-02-22T02:35:10.217Z,25.83
2018-02-22T02:37:38.608Z,23.58
2018-02-22T02:40:06.805Z,21.62
2018-02-22T02:42:35.120Z,22.65
2018-02-22T02:45:03.403Z,22.27
2018-02-22T02:47:31.700Z,22.65
2018-02-22T02:49:59.901Z,20.88
2018-02-22T02:52:28.150Z,22.73
2018-02-22T02:54:56.277Z,23.25
2018-02-22T02:57:24.478Z,24.15
2018-02-22T02:59:52.508Z,22.33
2018-02-22T03:02:20.772Z,24.00
2018-02-22T03:04:49.074Z,18.65
2018-02-22T03:07:17.396Z,19.67
2018-02-22T03:09:45.647Z,19.90
2018-02-22T03:12:13.939Z,19.17
2018-02-22T03:14:42.147Z,19.40
2018-02-22T03:17:10.598Z,20.80
2018-02-22T03:19:39.136Z,20.48
2018-02-22T03:22:07.335Z,18.55
2018-02-22T03:24:35.737Z,19.73
2018-02-22T03:27:04.035Z,19.23
2018-02-22T03:29:32.080Z,21.37
2018-02-22T03:32:00.336Z,20.25
2018-02-22T03:34:28.674Z,21.33
2018-02-22T03:36:56.815Z,20.95
2018-02-22T03:39:25.015Z,20.92
2018-02-22T03:41:53.002Z,18.62
2018-02-22T03:44:21.140Z,20.70
2018-02-22T03:46:49.382Z,18.85
2018-02-22T03:49:17.587Z,19.02
2018-02-22T03:51:45.674Z,20.52
2018-02-22T03:54:13.817Z,18.80
2018-02-22T03:56:42.113Z,18.77
2018-02-22T03:59:10.306Z,19.60
2018-02-22T04:01:38.595Z,17.17
2018-02-22T04:04:06.956Z,17.15
2018-02-22T04:06:35.265Z,16.50
2018-02-22T04:09:03.655Z,16.90
2018-02-22T04:11:32.856Z,17.02
2018-02-22T04:14:01.045Z,17.30
2018-02-22T04:16:29.142Z,16.08
2018-02-22T04:18:57.255Z,17.50
2018-02-22T04:21:25.383Z,17.20
2018-02-22T04:23:53.643Z,17.15
2018-02-22T04:26:21.820Z,18.05
2018-02-22T04:28:50.007Z,17.85
2018-02-22T04:31:18.101Z,17.70
2018-02-22T04:33:46.319Z,15.32
2018-02-22T04:36:14.822Z,17.55
2018-02-22T04:38:43.203Z,16.10
2018-02-22T04:41:11.496Z,15.68
2018-02-22T04:43:39.800Z,16.65
2018-02-22T04:46:08.004Z,17.33
2018-02-22T04:48:36.282Z,16.83
2018-02-22T04:51:04.283Z,16.08
2018-02-22T04:53:32.474Z,16.30
2018-02-22T04:56:00.772Z,16.87
2018-02-22T04:58:28.912Z,16.98
2018-02-22T05:00:57.078Z,16.95
2018-02-22T05:03:25.186Z,16.45
2018-02-22T05:05:53.151Z,16.65
2018-02-22T05:08:21.331Z,16.35
2018-02-22T05:10:49.630Z,17.12
2018-02-22T05:13:18.132Z,16.37
2018-02-22T05:15:46.327Z,15.55
2018-02-22T05:18:14.724Z,18.30
2018-02-22T05:20:42.956Z,14.57
2018-02-22T05:23:11.306Z,17.10
2018-02-22T05:25:39.635Z,16.15
2018-02-22T05:28:07.923Z,15.43
2018-02-22T05:30:36.214Z,14.48
2018-02-22T05:33:04.394Z,16.02
2018-02-22T05:35:32.489Z,16.15
2018-02-22T05:38:00.597Z,15.63
2018-02-22T05:40:28.780Z,16.73
2018-02-22T05:42:56.876Z,16.80
2018-02-22T05:45:24.977Z,15.15
2018-02-22T05:47:52.909Z,14.55
2018-02-22T05:50:21.161Z,15.40
2018-02-22T05:52:49.111Z,15.73
2018-02-22T05:55:17.358Z,14.98
2018-02-22T05:57:45.738Z,17.02
2018-02-22T06:00:13.944Z,16.50
2018-02-22T06:02:42.021Z,15.80
2018-02-22T06:05:10.319Z,15.80
2018-02-22T06:07:38.708Z,17.08
2018-02-22T06:10:06.915Z,16.85
2018-02-22T06:12:35.102Z,17.23
2018-02-22T06:15:03.304Z,17.45
2018-02-22T06:17:31.494Z,16.52
2018-02-22T06:19:59.697Z,19.10
2018-02-22T06:22:27.777Z,15.68
2018-02-22T06:24:55.970Z,15.25
2018-02-22T06:27:24.060Z,13.52
2018-02-22T06:29:52.244Z,16.27
2018-02-22T06:32:20.305Z,15.07
2018-02-22T06:34:48.586Z,16.62
2018-02-22T06:37:16.755Z,16.10
2018-02-22T06:39:44.929Z,19.35
2018-02-22T06:42:13.425Z,15.48
2018-02-22T06:44:41.821Z,14.45
2018-02-22T06:47:10.133Z,16.10
2018-02-22T06:49:38.436Z,13.50
2018-02-22T06:52:06.724Z,14.90
2018-02-22T06:54:34.915Z,14.48
2018-02-22T06:57:03.217Z,14.55
2018-02-22T06:59:31.513Z,15.43
2018-02-22T07:01:59.601Z,14.65
2018-02-22T07:04:27.792Z,15.38
2018-02-22T07:06:55.988Z,16.27
2018-02-22T07:09:24.191Z,25.70
2018-02-22T07:11:52.231Z,18.52
2018-02-22T07:14:20.564Z,15.55
2018-02-22T07:16:48.860Z,15.88
2018-02-22T07:19:17.169Z,13.30
2018-02-22T07:21:45.267Z,13.55
2018-02-22T07:24:13.461Z,12.93
2018-02-22T07:26:41.740Z,13.80
2018-02-22T07:29:09.943Z,12.02
2018-02-22T07:31:38.037Z,12.23
2018-02-22T07:34:06.844Z,12.05
2018-02-22T07:36:35.043Z,13.25
2018-02-22T07:39:03.228Z,12.95
2018-02-22T07:41:31.419Z,14.50
2018-02-22T07:43:59.539Z,14.90
2018-02-22T07:46:27.824Z,13.90
2018-02-22T07:48:56.007Z,14.00
2018-02-22T07:51:25.143Z,16.05
2018-02-22T07:53:53.115Z,14.05
2018-02-22T07:56:21.419Z,14.13
2018-02-22T07:58:49.700Z,12.80
2018-02-22T08:01:18.021Z,13.80
2018-02-22T08:03:46.417Z,13.50
2018-02-22T08:06:14.802Z,12.55
2018-02-22T08:08:43.003Z,12.48
2018-02-22T08:11:11.195Z,12.48
2018-02-22T08:13:39.383Z,11.23
2018-02-22T08:16:07.585Z,11.48
2018-02-22T08:18:35.666Z,10.63
2018-02-22T08:21:03.868Z,9.95
2018-02-22T08:23:31.964Z,11.95
2018-02-22T08:26:00.150Z,11.38
2018-02-22T08:28:28.253Z,11.15
2018-02-22T08:30:56.434Z,11.80
2018-02-22T08:33:24.745Z,11.98
2018-02-22T08:35:52.946Z,12.02
2018-02-22T08:38:21.121Z,11.12
2018-02-22T08:40:49.413Z,9.85
2018-02-22T08:43:17.516Z,10.55
2018-02-22T08:45:45.594Z,11.82
2018-02-22T08:48:13.803Z,10.98
2018-02-22T08:50:42.001Z,10.80
2018-02-22T08:53:10.081Z,11.30
2018-02-22T08:55:38.281Z,9.98
2018-02-22T08:58:06.481Z,12.05
2018-02-22T09:00:34.661Z,10.70
2018-02-22T09:03:02.762Z,10.95
2018-02-22T09:05:31.002Z,10.88
2018-02-22T09:07:59.142Z,10.45
2018-02-22T09:10:27.344Z,10.63
2018-02-22T09:12:55.441Z,8.88
2018-02-22T09:15:23.741Z,9.85
2018-02-22T09:17:51.946Z,9.93
2018-02-22T09:20:20.218Z,9.00
2018-02-22T09:22:48.329Z,9.40
2018-02-22T09:25:16.507Z,9.68
2018-02-22T09:27:44.706Z,8.10
2018-02-22T09:30:12.897Z,7.10
2018-02-22T09:32:41.000Z,9.05
2018-02-22T09:35:09.195Z,9.52
2018-02-22T09:37:37.276Z,10.85
2018-02-22T09:40:05.479Z,7.95
2018-02-22T09:42:34.484Z,9.45
2018-02-22T09:45:02.698Z,8.30
2018-02-22T09:47:30.697Z,9.52
2018-02-22T09:49:58.877Z,8.30
2018-02-22T09:52:27.058Z,8.13
2018-02-22T09:54:55.259Z,8.35
2018-02-22T09:57:23.337Z,8.30
2018-02-22T09:59:51.638Z,8.95
2018-02-22T10:02:19.736Z,9.07
2018-02-22T10:04:47.923Z,8.75
2018-02-22T10:07:16.216Z,9.27
2018-02-22T10:09:44.322Z,9.75
2018-02-22T10:12:12.518Z,10.00
2018-02-22T10:14:40.699Z,9.65
2018-02-22T10:17:08.898Z,9.95
2018-02-22T10:19:37.001Z,9.60
2018-02-22T10:22:05.178Z,9.23
2018-02-22T10:24:33.287Z,8.82
2018-02-22T10:27:01.579Z,10.45
2018-02-22T10:29:29.780Z,9.52
2018-02-22T10:31:57.962Z,10.02
2018-02-22T10:34:26.148Z,10.68
2018-02-22T10:36:54.564Z,9.95
2018-02-22T10:39:22.961Z,10.15
2018-02-22T10:41:51.149Z,10.05
2018-02-22T10:44:19.257Z,12.15
2018-02-22T10:46:47.444Z,10.65
2018-02-22T10:49:15.546Z,10.50
2018-02-22T10:51:43.836Z,10.75
2018-02-22T10:54:12.229Z,9.80
2018-02-22T10:56:40.426Z,9.30
2018-02-22T10:59:08.510Z,10.40
2018-02-22T11:01:36.769Z,11.35
2018-02-22T11:04:04.994Z,11.60
2018-02-22T11:06:33.091Z,9.90
2018-02-22T11:09:01.285Z,10.98
2018-02-22T11:11:29.491Z,9.30
2018-02-22T11:13:57.668Z,9.75
2018-02-22T11:16:25.867Z,11.20
2018-02-22T11:18:53.905Z,9.75
2018-02-22T11:21:22.165Z,12.30
2018-02-22T11:23:50.245Z,10.45
2018-02-22T11:26:18.448Z,11.65
2018-02-22T11:28:46.375Z,12.95
2018-02-22T11:31:14.635Z,11.82
2018-02-22T11:33:42.731Z,11.25
2018-02-22T11:36:11.546Z,10.90
2018-02-22T11:38:40.049Z,11.50
2018-02-22T11:41:08.221Z,9.75
2018-02-22T11:43:36.316Z,11.60
2018-02-22T11:46:04.516Z,11.63
2018-02-22T11:48:32.699Z,11.82
2018-02-22T11:51:00.896Z,11.48
2018-02-22T11:53:29.212Z,10.50
2018-02-22T11:55:57.591Z,10.80
2018-02-22T11:58:25.803Z,12.37
2018-02-22T12:00:54.099Z,11.63
2018-02-22T12:03:22.276Z,11.45
2018-02-22T12:05:50.480Z,11.48
2018-02-22T12:08:18.576Z,11.30
2018-02-22T12:10:46.679Z,11.20
2018-02-22T12:13:14.846Z,12.63
2018-02-22T12:15:43.053Z,10.40
2018-02-22T12:18:12.078Z,11.65
2018-02-22T12:20:40.251Z,11.80
2018-02-22T12:23:08.456Z,12.50
2018-02-22T12:25:36.658Z,12.10
2018-02-22T12:28:04.832Z,11.68
2018-02-22T12:30:32.936Z,11.70
2018-02-22T12:33:01.134Z,13.23
2018-02-22T12:35:29.519Z,14.95
2018-02-22T12:37:57.738Z,12.95
2018-02-22T12:40:26.122Z,12.10
2018-02-22T12:42:54.421Z,13.70
2018-02-22T12:45:22.816Z,12.40
2018-02-22T12:47:51.823Z,11.52
2018-02-22T12:50:19.818Z,14.07
2018-02-22T12:52:48.017Z,14.63
2018-02-22T12:55:16.037Z,12.77
2018-02-22T12:57:44.295Z,12.70
2018-02-22T13:00:12.481Z,12.65
2018-02-22T13:02:40.694Z,12.82
2018-02-22T13:05:08.785Z,12.95
2018-02-22T13:07:36.967Z,11.82
2018-02-22T13:10:05.165Z,11.85
2018-02-22T13:12:33.265Z,11.63
2018-02-22T13:15:01.445Z,12.50
2018-02-22T13:17:29.644Z,12.02
2018-02-22T13:19:57.652Z,11.20
2018-02-22T13:22:25.825Z,13.23
2018-02-22T13:24:54.125Z,14.45
2018-02-22T13:27:22.224Z,14.23
2018-02-22T13:29:50.416Z,13.27
2018-02-22T13:32:18.617Z,11.65
2018-02-22T13:34:46.705Z,15.10
2018-02-22T13:37:14.894Z,13.40
2018-02-22T13:39:42.982Z,14.45
2018-02-22T13:42:11.237Z,13.38
2018-02-22T13:44:39.488Z,13.90
2018-02-22T13:47:07.681Z,14.75
2018-02-22T13:49:35.869Z,16.27
2018-02-22T13:52:04.054Z,16.50
2018-02-22T13:54:32.255Z,14.43
2018-02-22T13:57:00.455Z,14.43
2018-02-22T13:59:28.686Z,14.27
2018-02-22T14:01:56.835Z,14.27
2018-02-22T14:04:24.964Z,13.65
2018-02-22T14:06:53.265Z,13.60
2018-02-22T14:09:21.428Z,14.10
2018-02-22T14:11:49.528Z,13.77
2018-02-22T14:14:17.922Z,14.55
2018-02-22T14:16:46.501Z,16.10
2018-02-22T14:19:14.610Z,17.15
2018-02-22T14:21:42.692Z,18.02
2018-02-22T14:24:10.903Z,15.02
2018-02-22T14:26:39.308Z,15.20
2018-02-22T14:29:07.585Z,16.60
2018-02-22T14:31:35.886Z,16.12
2018-02-22T14:34:04.086Z,16.00
2018-02-22T14:36:32.187Z,15.98
2018-02-22T14:39:00.481Z,17.37
2018-02-22T14:41:28.757Z,15.45
2018-02-22T14:43:56.859Z,17.23
2018-02-22T14:46:26.220Z,15.00
2018-02-22T14:48:54.486Z,13.90
2018-02-22T14:51:22.783Z,13.45
2018-02-22T14:53:50.978Z,14.05
2018-02-22T14:56:18.942Z,15.02
2018-02-22T14:58:47.045Z,15.63
2018-02-22T15:01:15.145Z,13.27
2018-02-22T15:03:43.390Z,12.25
2018-02-22T15:06:11.433Z,13.93
2018-02-22T15:08:40.550Z,14.75
2018-02-22T15:11:08.730Z,13.07
2018-02-22T15:13:36.939Z,14.60
2018-02-22T15:16:05.048Z,14.93
2018-02-22T15:18:33.320Z,14.43
2018-02-22T15:21:01.520Z,14.82
2018-02-22T15:23:29.601Z,14.90
2018-02-22T15:25:57.709Z,14.15
2018-02-22T15:28:27.062Z,14.63
2018-02-22T15:30:55.210Z,15.15
2018-02-22T15:33:23.400Z,15.30
2018-02-22T15:35:51.693Z,16.85
2018-02-22T15:38:19.693Z,15.98
2018-02-22T15:40:47.792Z,16.20
2018-02-22T15:43:15.902Z,18.00
2018-02-22T15:45:44.264Z,16.98
2018-02-22T15:48:12.463Z,18.10
2018-02-22T15:50:40.665Z,18.10
2018-02-22T15:53:09.363Z,17.33
2018-02-22T15:55:37.683Z,18.58
2018-02-22T15:58:05.960Z,18.55
2018-02-22T16:00:34.265Z,18.65
2018-02-22T16:03:02.466Z,19.20
2018-02-22T16:05:30.744Z,19.60
2018-02-22T16:07:58.843Z,21.73
2018-02-22T16:10:28.161Z,22.15
2018-02-22T16:12:56.260Z,21.98
2018-02-22T16:15:24.346Z,20.30
2018-02-22T16:17:52.466Z,21.10
2018-02-22T16:20:20.527Z,18.52
2018-02-22T16:22:48.847Z,18.45
2018-02-22T16:25:17.030Z,20.42
2018-02-22T16:27:45.216Z,18.73
2018-02-22T16:30:13.424Z,21.02
2018-02-22T16:32:41.603Z,20.75
2018-02-22T16:35:09.803Z,19.40
2018-02-22T16:37:37.984Z,17.95
2018-02-22T16:40:05.969Z,19.65
2018-02-22T16:42:34.277Z,20.65
2018-02-22T16:45:02.469Z,19.20
2018-02-22T16:47:30.776Z,20.50
2018-02-22T16:49:58.956Z,20.90
2018-02-22T16:52:27.063Z,20.17
2018-02-22T16:54:55.244Z,21.05
2018-02-22T16:57:23.343Z,21.17
2018-02-22T16:59:51.442Z,18.77
2018-02-22T17:02:19.451Z,20.77
2018-02-22T17:04:47.539Z,19.37
2018-02-22T17:07:15.601Z,19.02
2018-02-22T17:09:43.702Z,21.70
2018-02-22T17:12:11.636Z,19.17
2018-02-22T17:14:39.900Z,22.55
2018-02-22T17:17:08.084Z,23.57
2018-02-22T17:19:36.987Z,21.75
2018-02-22T17:22:05.395Z,23.08
2018-02-22T17:24:33.700Z,23.85
2018-02-22T17:27:01.834Z,21.30
2018-02-22T17:29:29.962Z,21.75
2018-02-22T17:31:58.062Z,21.35
2018-02-22T17:34:26.523Z,23.10
2018-02-22T17:36:54.670Z,22.77
2018-02-22T17:39:22.943Z,29.83
2018-02-22T17:41:51.285Z,31.52
2018-02-22T17:44:19.443Z,21.67
2018-02-22T17:46:47.741Z,19.95
2018-02-22T17:49:16.028Z,19.55
2018-02-22T17:51:44.225Z,21.12
2018-02-22T17:54:12.328Z,19.60
2018-02-22T17:56:40.415Z,19.80
2018-02-22T17:59:09.109Z,18.48
2018-02-22T18:01:37.651Z,20.08
2018-02-22T18:04:06.020Z,18.98
2018-02-22T18:06:35.255Z,18.27
2018-02-22T18:09:03.432Z,19.25
2018-02-22T18:11:31.520Z,21.20
2018-02-22T18:13:59.667Z,20.67
2018-02-22T18:16:28.766Z,20.62
2018-02-22T18:18:56.826Z,22.70
2018-02-22T18:21:25.135Z,21.35
2018-02-22T18:23:53.319Z,19.10
2018-02-22T18:26:21.620Z,19.98
2018-02-22T18:28:52.061Z,19.12
2018-02-22T18:31:20.256Z,19.17
2018-02-22T18:33:48.438Z,17.70
2018-02-22T18:36:16.540Z,17.37
2018-02-22T18:38:45.553Z,16.65
2018-02-22T18:41:13.782Z,15.98
2018-02-22T18:43:42.041Z,17.42
2018-02-22T18:46:10.183Z,14.23
2018-02-22T18:48:38.441Z,15.63
2018-02-22T18:51:06.940Z,17.17
2018-02-22T18:53:36.166Z,17.85
2018-02-22T18:56:05.022Z,16.37
2018-02-22T18:58:33.307Z,17.10
2018-02-22T19:01:01.560Z,15.07
2018-02-22T19:03:29.959Z,16.50
2018-02-22T19:05:58.147Z,15.68
2018-02-22T19:08:26.342Z,16.27
2018-02-22T19:10:54.448Z,14.55
2018-02-22T19:13:22.520Z,15.98
2018-02-22T19:15:50.731Z,14.45
2018-02-22T19:18:18.852Z,20.33
2018-02-22T19:20:47.000Z,17.10
2018-02-22T19:23:15.700Z,16.08
2018-02-22T19:25:43.802Z,17.08
2018-02-22T19:28:11.908Z,16.70
2018-02-22T19:30:40.000Z,15.85
2018-02-22T19:33:07.960Z,16.50
2018-02-22T19:35:36.101Z,16.25
2018-02-22T19:38:04.099Z,17.65
2018-02-22T19:40:32.208Z,17.42
2018-02-22T19:43:00.440Z,15.32
2018-02-22T19:45:28.641Z,14.95
2018-02-22T19:47:56.739Z,16.65
2018-02-22T19:50:24.916Z,15.68
2018-02-22T19:52:53.217Z,16.55
2018-02-22T19:55:21.324Z,16.12
2018-02-22T19:57:49.644Z,18.45
2018-02-22T20:00:17.741Z,18.50
2018-02-22T20:02:45.901Z,19.55
2018-02-22T20:05:14.160Z,19.48
2018-02-22T20:07:42.601Z,18.15
2018-02-22T20:10:10.681Z,18.87
2018-02-22T20:12:38.879Z,18.62
2018-02-22T20:15:06.980Z,20.15
2018-02-22T20:17:35.159Z,20.67
2018-02-22T20:20:03.383Z,22.58
2018-02-22T20:22:31.495Z,20.75
2018-02-22T20:24:59.756Z,21.25
2018-02-22T20:27:27.838Z,20.02
2018-02-22T20:29:56.145Z,20.62
2018-02-22T20:32:24.358Z,20.48
2018-02-22T20:34:52.519Z,20.48
2018-02-22T20:37:20.721Z,22.52
2018-02-22T20:39:48.700Z,24.55
2018-02-22T20:42:16.839Z,23.42
2018-02-22T20:44:45.199Z,22.48
2018-02-22T20:47:13.299Z,19.58
2018-02-22T20:49:41.400Z,19.67
2018-02-22T20:52:09.589Z,21.73
2018-02-22T20:54:37.780Z,21.50
2018-02-22T20:57:06.138Z,19.83
2018-02-22T20:59:34.572Z,22.73
2018-02-22T21:02:02.603Z,21.02
2018-02-22T21:04:30.770Z,19.95
2018-02-22T21:06:58.890Z,19.40
2018-02-22T21:09:27.043Z,20.70
2018-02-22T21:11:55.141Z,17.73
2018-02-22T21:14:26.832Z,18.23
2018-02-22T21:16:55.317Z,18.35
2018-02-22T21:19:24.842Z,20.25
2018-02-22T21:21:52.977Z,20.88
2018-02-22T21:24:21.117Z,19.25
2018-02-22T21:26:49.519Z,21.50
2018-02-22T21:29:17.822Z,21.70
2018-02-22T21:31:45.908Z,21.62
2018-02-22T21:34:13.907Z,21.87
2018-02-22T21:36:42.200Z,20.15
2018-02-22T21:39:10.400Z,20.35
2018-02-22T21:41:38.676Z,20.90
2018-02-22T21:44:06.692Z,21.73
2018-02-22T21:46:34.870Z,18.95
2018-02-22T21:49:03.069Z,21.27
2018-02-22T21:51:31.158Z,19.08
2018-02-22T21:53:59.357Z,19.87
2018-02-22T21:56:27.557Z,26.98
2018-02-22T21:58:55.738Z,21.12
2018-02-22T22:01:23.842Z,20.60
2018-02-22T22:03:52.038Z,20.80
2018-02-22T22:06:20.225Z,19.45
2018-02-22T22:08:48.512Z,18.45
2018-02-22T22:11:16.640Z,16.67
2018-02-22T22:13:45.004Z,16.35
2018-02-22T22:16:13.307Z,15.68
2018-02-22T22:18:41.404Z,17.12
2018-02-22T22:21:09.590Z,18.60
2018-02-22T22:23:37.694Z,17.40
2018-02-22T22:26:05.785Z,16.08
2018-02-22T22:28:33.866Z,15.90
2018-02-22T22:31:01.987Z,12.77
2018-02-22T22:33:30.977Z,14.30
2018-02-22T22:35:59.264Z,15.93
2018-02-22T22:38:27.316Z,13.52
2018-02-22T22:40:55.478Z,14.10
2018-02-22T22:43:23.489Z,14.85
2018-02-22T22:45:51.644Z,15.43
2018-02-22T22:48:19.731Z,17.65
2018-02-22T22:50:48.237Z,15.02
2018-02-22T22:53:16.328Z,17.80
2018-02-22T22:55:44.722Z,15.68
2018-02-22T22:58:12.826Z,16.90
2018-02-22T23:00:40.985Z,17.08
2018-02-22T23:03:09.206Z,15.93
2018-02-22T23:05:37.407Z,16.45
2018-02-22T23:08:05.598Z,17.80
2018-02-22T23:10:33.689Z,15.85
2018-02-22T23:13:01.779Z,15.63
2018-02-22T23:15:30.064Z,16.90
2018-02-22T23:17:58.369Z,16.12
2018-02-22T23:20:26.566Z,14.75
2018-02-22T23:22:54.622Z,15.48
2018-02-22T23:25:22.743Z,14.45
2018-02-22T23:27:51.546Z,15.13
2018-02-22T23:30:19.863Z,16.67
2018-02-22T23:32:48.058Z,18.23
2018-02-22T23:35:16.359Z,16.55
2018-02-22T23:37:44.649Z,15.63
2018-02-22T23:40:12.805Z,18.75
2018-02-22T23:42:41.026Z,18.65
2018-02-22T23:45:09.064Z,15.80
2018-02-22T23:47:37.185Z,17.20
2018-02-22T23:50:05.267Z,15.55
2018-02-22T23:52:33.491Z,16.37
2018-02-22T23:55:01.589Z,16.12
2018-02-22T23:57:29.881Z,14.98
2018-02-22T23:59:58.188Z,15.05
